sensor_id;sensor_type;location;lat;lon;timestamp;P1;durP1;ratioP1;P2;durP2;ratioP2
4696;SDS011;2362;50.780;0.292;2022-07-11T00:00:10;0.85;;;0.85;;
4696;SDS011;2362;50.780;0.292;2022-07-11T00:02:38;0.98;;;0.98;;
4696;SDS011;2362;50.780;0.292;2022-07-11T00:05:08;1.00;;;1.00;;
4696;SDS011;2362;50.780;0.292;2022-07-11T00:07:34;1.00;;;1.00;;
4696;SDS011;2362;50.780;0.292;2022-07-11T00:10:02;1.02;;;1.02;;
4696;SDS011;2362;50.780;0.292;2022-07-11T00:12:28;1.10;;;1.10;;
4696;SDS011;2362;50.780;0.292;2022-07-11T00:14:54;0.98;;;0.98;;
4696;SDS011;2362;50.780;0.292;2022-07-11T00:17:20;1.00;;;1.00;;
4696;SDS011;2362;50.780;0.292;2022-07-11T00:19:46;1.10;;;1.10;;
4696;SDS011;2362;50.780;0.292;2022-07-11T00:22:12;0.90;;;0.90;;
4696;SDS011;2362;50.780;0.292;2022-07-11T00:24:37;0.98;;;0.98;;
4696;SDS011;2362;50.780;0.292;2022-07-11T00:27:03;0.90;;;0.90;;
4696;SDS011;2362;50.780;0.292;2022-07-11T00:29:30;1.00;;;1.00;;
4696;SDS011;2362;50.780;0.292;2022-07-11T00:31:56;1.05;;;1.05;;
4696;SDS011;2362;50.780;0.292;2022-07-11T00:34:23;1.05;;;1.05;;
4696;SDS011;2362;50.780;0.292;2022-07-11T00:36:49;0.95;;;0.95;;
4696;SDS011;2362;50.780;0.292;2022-07-11T00:39:15;0.90;;;0.90;;
4696;SDS011;2362;50.780;0.292;2022-07-11T00:41:40;1.00;;;1.00;;
4696;SDS011;2362;50.780;0.292;2022-07-11T00:44:06;0.98;;;0.98;;
4696;SDS011;2362;50.780;0.292;2022-07-11T00:46:32;1.00;;;1.00;;
4696;SDS011;2362;50.780;0.292;2022-07-11T00:48:58;1.10;;;1.10;;
4696;SDS011;2362;50.780;0.292;2022-07-11T00:51:24;0.95;;;0.95;;
4696;SDS011;2362;50.780;0.292;2022-07-11T00:53:51;1.10;;;1.10;;
4696;SDS011;2362;50.780;0.292;2022-07-11T00:56:19;1.00;;;1.00;;
4696;SDS011;2362;50.780;0.292;2022-07-11T00:58:46;0.85;;;0.85;;
4696;SDS011;2362;50.780;0.292;2022-07-11T01:01:13;1.08;;;1.08;;
4696;SDS011;2362;50.780;0.292;2022-07-11T01:03:39;1.10;;;1.10;;
4696;SDS011;2362;50.780;0.292;2022-07-11T01:06:05;1.00;;;1.00;;
4696;SDS011;2362;50.780;0.292;2022-07-11T01:08:32;0.80;;;0.80;;
4696;SDS011;2362;50.780;0.292;2022-07-11T01:11:01;0.95;;;0.95;;
4696;SDS011;2362;50.780;0.292;2022-07-11T01:13:28;0.90;;;0.90;;
4696;SDS011;2362;50.780;0.292;2022-07-11T01:16:10;1.08;;;1.08;;
4696;SDS011;2362;50.780;0.292;2022-07-11T01:18:41;0.82;;;0.82;;
4696;SDS011;2362;50.780;0.292;2022-07-11T01:21:16;1.10;;;1.10;;
4696;SDS011;2362;50.780;0.292;2022-07-11T01:23:49;1.10;;;1.10;;
4696;SDS011;2362;50.780;0.292;2022-07-11T01:26:16;1.08;;;1.08;;
4696;SDS011;2362;50.780;0.292;2022-07-11T01:28:43;1.00;;;1.00;;
4696;SDS011;2362;50.780;0.292;2022-07-11T01:31:09;1.00;;;1.00;;
4696;SDS011;2362;50.780;0.292;2022-07-11T01:33:37;1.00;;;1.00;;
4696;SDS011;2362;50.780;0.292;2022-07-11T01:36:03;1.00;;;1.00;;
4696;SDS011;2362;50.780;0.292;2022-07-11T01:38:28;0.95;;;0.95;;
4696;SDS011;2362;50.780;0.292;2022-07-11T01:40:54;0.90;;;0.90;;
4696;SDS011;2362;50.780;0.292;2022-07-11T01:43:20;1.00;;;1.00;;
4696;SDS011;2362;50.780;0.292;2022-07-11T01:45:45;1.10;;;1.10;;
4696;SDS011;2362;50.780;0.292;2022-07-11T01:48:11;1.10;;;1.10;;
4696;SDS011;2362;50.780;0.292;2022-07-11T01:50:37;1.00;;;1.00;;
4696;SDS011;2362;50.780;0.292;2022-07-11T01:53:03;1.17;;;1.17;;
4696;SDS011;2362;50.780;0.292;2022-07-11T01:55:28;0.95;;;0.95;;
4696;SDS011;2362;50.780;0.292;2022-07-11T01:57:54;1.17;;;1.17;;
4696;SDS011;2362;50.780;0.292;2022-07-11T02:00:20;0.90;;;0.90;;
4696;SDS011;2362;50.780;0.292;2022-07-11T02:02:45;0.95;;;0.95;;
4696;SDS011;2362;50.780;0.292;2022-07-11T02:05:11;1.10;;;1.10;;
4696;SDS011;2362;50.780;0.292;2022-07-11T02:07:37;0.98;;;0.98;;
4696;SDS011;2362;50.780;0.292;2022-07-11T02:10:21;1.00;;;1.00;;
4696;SDS011;2362;50.780;0.292;2022-07-11T02:12:47;1.00;;;1.00;;
4696;SDS011;2362;50.780;0.292;2022-07-11T02:15:12;1.23;;;1.23;;
4696;SDS011;2362;50.780;0.292;2022-07-11T02:17:38;1.20;;;1.20;;
4696;SDS011;2362;50.780;0.292;2022-07-11T02:20:04;1.10;;;1.10;;
4696;SDS011;2362;50.780;0.292;2022-07-11T02:22:30;0.90;;;0.90;;
4696;SDS011;2362;50.780;0.292;2022-07-11T02:24:56;0.98;;;0.98;;
4696;SDS011;2362;50.780;0.292;2022-07-11T02:27:22;1.02;;;1.02;;
4696;SDS011;2362;50.780;0.292;2022-07-11T02:29:47;1.17;;;1.17;;
4696;SDS011;2362;50.780;0.292;2022-07-11T02:32:13;1.10;;;1.10;;
4696;SDS011;2362;50.780;0.292;2022-07-11T02:34:38;1.23;;;1.23;;
4696;SDS011;2362;50.780;0.292;2022-07-11T02:37:04;1.05;;;1.05;;
4696;SDS011;2362;50.780;0.292;2022-07-11T02:39:30;1.20;;;1.20;;
4696;SDS011;2362;50.780;0.292;2022-07-11T02:41:56;1.02;;;1.02;;
4696;SDS011;2362;50.780;0.292;2022-07-11T02:44:22;1.20;;;1.20;;
4696;SDS011;2362;50.780;0.292;2022-07-11T02:46:48;1.05;;;1.05;;
4696;SDS011;2362;50.780;0.292;2022-07-11T02:49:14;1.10;;;1.10;;
4696;SDS011;2362;50.780;0.292;2022-07-11T02:51:39;1.10;;;1.10;;
4696;SDS011;2362;50.780;0.292;2022-07-11T02:54:05;1.10;;;1.10;;
4696;SDS011;2362;50.780;0.292;2022-07-11T02:56:31;1.10;;;1.10;;
4696;SDS011;2362;50.780;0.292;2022-07-11T02:58:58;1.17;;;1.17;;
4696;SDS011;2362;50.780;0.292;2022-07-11T03:01:23;1.10;;;1.10;;
4696;SDS011;2362;50.780;0.292;2022-07-11T03:03:49;1.20;;;1.20;;
4696;SDS011;2362;50.780;0.292;2022-07-11T03:06:14;0.98;;;0.98;;
4696;SDS011;2362;50.780;0.292;2022-07-11T03:08:40;1.00;;;1.00;;
4696;SDS011;2362;50.780;0.292;2022-07-11T03:11:06;0.90;;;0.90;;
4696;SDS011;2362;50.780;0.292;2022-07-11T03:13:31;1.10;;;1.10;;
4696;SDS011;2362;50.780;0.292;2022-07-11T03:15:57;1.10;;;1.10;;
4696;SDS011;2362;50.780;0.292;2022-07-11T03:18:23;1.10;;;1.10;;
4696;SDS011;2362;50.780;0.292;2022-07-11T03:20:48;1.10;;;1.10;;
4696;SDS011;2362;50.780;0.292;2022-07-11T03:23:14;1.00;;;1.00;;
4696;SDS011;2362;50.780;0.292;2022-07-11T03:25:40;0.95;;;0.95;;
4696;SDS011;2362;50.780;0.292;2022-07-11T03:28:05;1.10;;;1.10;;
4696;SDS011;2362;50.780;0.292;2022-07-11T03:30:31;1.00;;;1.00;;
4696;SDS011;2362;50.780;0.292;2022-07-11T03:32:57;1.10;;;1.10;;
4696;SDS011;2362;50.780;0.292;2022-07-11T03:35:22;1.02;;;1.02;;
4696;SDS011;2362;50.780;0.292;2022-07-11T03:38:06;1.00;;;1.00;;
4696;SDS011;2362;50.780;0.292;2022-07-11T03:40:36;0.95;;;0.95;;
4696;SDS011;2362;50.780;0.292;2022-07-11T03:43:02;1.10;;;1.10;;
4696;SDS011;2362;50.780;0.292;2022-07-11T03:45:28;1.20;;;1.20;;
4696;SDS011;2362;50.780;0.292;2022-07-11T03:47:55;1.10;;;1.10;;
4696;SDS011;2362;50.780;0.292;2022-07-11T03:50:21;1.10;;;1.10;;
4696;SDS011;2362;50.780;0.292;2022-07-11T03:52:46;0.90;;;0.90;;
4696;SDS011;2362;50.780;0.292;2022-07-11T03:55:12;1.00;;;1.00;;
4696;SDS011;2362;50.780;0.292;2022-07-11T03:57:38;1.10;;;1.10;;
4696;SDS011;2362;50.780;0.292;2022-07-11T04:00:04;1.00;;;1.00;;
4696;SDS011;2362;50.780;0.292;2022-07-11T04:02:32;1.00;;;1.00;;
4696;SDS011;2362;50.780;0.292;2022-07-11T04:04:59;1.00;;;1.00;;
4696;SDS011;2362;50.780;0.292;2022-07-11T04:07:25;1.00;;;1.00;;
4696;SDS011;2362;50.780;0.292;2022-07-11T04:09:53;1.00;;;1.00;;
4696;SDS011;2362;50.780;0.292;2022-07-11T04:12:19;1.08;;;1.08;;
4696;SDS011;2362;50.780;0.292;2022-07-11T04:14:45;1.17;;;1.17;;
4696;SDS011;2362;50.780;0.292;2022-07-11T04:17:11;1.10;;;1.10;;
4696;SDS011;2362;50.780;0.292;2022-07-11T04:19:37;1.00;;;1.00;;
4696;SDS011;2362;50.780;0.292;2022-07-11T04:22:03;1.00;;;1.00;;
4696;SDS011;2362;50.780;0.292;2022-07-11T04:24:29;1.00;;;1.00;;
4696;SDS011;2362;50.780;0.292;2022-07-11T04:26:55;1.20;;;1.20;;
4696;SDS011;2362;50.780;0.292;2022-07-11T04:29:21;1.25;;;1.25;;
4696;SDS011;2362;50.780;0.292;2022-07-11T04:31:47;1.00;;;1.00;;
4696;SDS011;2362;50.780;0.292;2022-07-11T04:34:12;0.93;;;0.93;;
4696;SDS011;2362;50.780;0.292;2022-07-11T04:36:39;0.90;;;0.90;;
4696;SDS011;2362;50.780;0.292;2022-07-11T04:39:04;0.98;;;0.98;;
4696;SDS011;2362;50.780;0.292;2022-07-11T04:41:30;1.10;;;1.10;;
4696;SDS011;2362;50.780;0.292;2022-07-11T04:43:56;1.10;;;1.10;;
4696;SDS011;2362;50.780;0.292;2022-07-11T04:46:21;1.20;;;1.20;;
4696;SDS011;2362;50.780;0.292;2022-07-11T04:48:47;1.00;;;1.00;;
4696;SDS011;2362;50.780;0.292;2022-07-11T04:51:13;1.00;;;1.00;;
4696;SDS011;2362;50.780;0.292;2022-07-11T04:53:39;1.25;;;1.25;;
4696;SDS011;2362;50.780;0.292;2022-07-11T04:56:05;1.05;;;1.05;;
4696;SDS011;2362;50.780;0.292;2022-07-11T04:58:31;1.30;;;1.30;;
4696;SDS011;2362;50.780;0.292;2022-07-11T05:00:57;1.00;;;1.00;;
4696;SDS011;2362;50.780;0.292;2022-07-11T05:03:23;1.10;;;1.10;;
4696;SDS011;2362;50.780;0.292;2022-07-11T05:05:49;1.00;;;1.00;;
4696;SDS011;2362;50.780;0.292;2022-07-11T05:08:15;1.10;;;1.10;;
4696;SDS011;2362;50.780;0.292;2022-07-11T05:10:41;0.90;;;0.90;;
4696;SDS011;2362;50.780;0.292;2022-07-11T05:13:06;1.10;;;1.10;;
4696;SDS011;2362;50.780;0.292;2022-07-11T05:15:32;1.00;;;1.00;;
4696;SDS011;2362;50.780;0.292;2022-07-11T05:17:58;0.95;;;0.95;;
4696;SDS011;2362;50.780;0.292;2022-07-11T05:20:23;0.80;;;0.80;;
4696;SDS011;2362;50.780;0.292;2022-07-11T05:22:49;0.90;;;0.90;;
4696;SDS011;2362;50.780;0.292;2022-07-11T05:25:15;0.82;;;0.82;;
4696;SDS011;2362;50.780;0.292;2022-07-11T05:27:40;0.80;;;0.80;;
4696;SDS011;2362;50.780;0.292;2022-07-11T05:30:06;0.80;;;0.80;;
4696;SDS011;2362;50.780;0.292;2022-07-11T05:32:33;0.68;;;0.68;;
4696;SDS011;2362;50.780;0.292;2022-07-11T05:34:59;0.60;;;0.60;;
4696;SDS011;2362;50.780;0.292;2022-07-11T05:37:27;0.70;;;0.70;;
4696;SDS011;2362;50.780;0.292;2022-07-11T05:39:53;0.60;;;0.60;;
4696;SDS011;2362;50.780;0.292;2022-07-11T05:42:19;0.60;;;0.60;;
4696;SDS011;2362;50.780;0.292;2022-07-11T05:44:44;0.50;;;0.50;;
4696;SDS011;2362;50.780;0.292;2022-07-11T05:47:10;0.50;;;0.50;;
4696;SDS011;2362;50.780;0.292;2022-07-11T05:49:36;0.40;;;0.40;;
4696;SDS011;2362;50.780;0.292;2022-07-11T05:52:01;0.40;;;0.40;;
4696;SDS011;2362;50.780;0.292;2022-07-11T05:54:27;0.32;;;0.32;;
4696;SDS011;2362;50.780;0.292;2022-07-11T05:56:53;0.40;;;0.40;;
4696;SDS011;2362;50.780;0.292;2022-07-11T05:59:22;0.40;;;0.40;;
4696;SDS011;2362;50.780;0.292;2022-07-11T06:01:48;0.30;;;0.30;;
4696;SDS011;2362;50.780;0.292;2022-07-11T06:04:13;0.30;;;0.30;;
4696;SDS011;2362;50.780;0.292;2022-07-11T06:06:39;0.50;;;0.50;;
4696;SDS011;2362;50.780;0.292;2022-07-11T06:09:06;0.40;;;0.40;;
4696;SDS011;2362;50.780;0.292;2022-07-11T06:11:32;0.40;;;0.40;;
4696;SDS011;2362;50.780;0.292;2022-07-11T06:13:57;0.30;;;0.30;;
4696;SDS011;2362;50.780;0.292;2022-07-11T06:16:23;0.40;;;0.40;;
4696;SDS011;2362;50.780;0.292;2022-07-11T06:18:49;0.40;;;0.40;;
4696;SDS011;2362;50.780;0.292;2022-07-11T06:21:16;0.30;;;0.30;;
4696;SDS011;2362;50.780;0.292;2022-07-11T06:23:41;0.30;;;0.30;;
4696;SDS011;2362;50.780;0.292;2022-07-11T06:26:07;0.30;;;0.30;;
4696;SDS011;2362;50.780;0.292;2022-07-11T06:28:33;0.60;;;0.60;;
4696;SDS011;2362;50.780;0.292;2022-07-11T06:30:59;0.30;;;0.30;;
4696;SDS011;2362;50.780;0.292;2022-07-11T06:33:25;0.30;;;0.30;;
4696;SDS011;2362;50.780;0.292;2022-07-11T06:35:51;0.30;;;0.30;;
4696;SDS011;2362;50.780;0.292;2022-07-11T06:38:17;0.20;;;0.20;;
4696;SDS011;2362;50.780;0.292;2022-07-11T06:40:43;0.28;;;0.28;;
4696;SDS011;2362;50.780;0.292;2022-07-11T06:43:10;0.30;;;0.30;;
4696;SDS011;2362;50.780;0.292;2022-07-11T06:45:37;0.20;;;0.20;;
4696;SDS011;2362;50.780;0.292;2022-07-11T06:48:03;0.30;;;0.30;;
4696;SDS011;2362;50.780;0.292;2022-07-11T06:50:30;0.20;;;0.20;;
4696;SDS011;2362;50.780;0.292;2022-07-11T06:52:56;0.25;;;0.25;;
4696;SDS011;2362;50.780;0.292;2022-07-11T06:55:22;0.20;;;0.20;;
4696;SDS011;2362;50.780;0.292;2022-07-11T06:57:48;0.20;;;0.20;;
4696;SDS011;2362;50.780;0.292;2022-07-11T07:00:15;0.20;;;0.20;;
4696;SDS011;2362;50.780;0.292;2022-07-11T07:02:41;0.20;;;0.20;;
4696;SDS011;2362;50.780;0.292;2022-07-11T07:05:07;0.52;;;0.52;;
4696;SDS011;2362;50.780;0.292;2022-07-11T07:07:34;0.20;;;0.20;;
4696;SDS011;2362;50.780;0.292;2022-07-11T07:10:00;0.30;;;0.30;;
4696;SDS011;2362;50.780;0.292;2022-07-11T07:12:26;0.20;;;0.20;;
4696;SDS011;2362;50.780;0.292;2022-07-11T07:14:51;0.20;;;0.20;;
4696;SDS011;2362;50.780;0.292;2022-07-11T07:17:17;0.20;;;0.20;;
4696;SDS011;2362;50.780;0.292;2022-07-11T07:19:44;0.20;;;0.20;;
4696;SDS011;2362;50.780;0.292;2022-07-11T07:22:09;0.20;;;0.20;;
4696;SDS011;2362;50.780;0.292;2022-07-11T07:24:35;0.20;;;0.20;;
4696;SDS011;2362;50.780;0.292;2022-07-11T07:27:02;0.22;;;0.22;;
4696;SDS011;2362;50.780;0.292;2022-07-11T07:29:28;0.20;;;0.20;;
4696;SDS011;2362;50.780;0.292;2022-07-11T07:31:54;0.30;;;0.30;;
4696;SDS011;2362;50.780;0.292;2022-07-11T07:34:20;0.20;;;0.20;;
4696;SDS011;2362;50.780;0.292;2022-07-11T07:36:46;0.20;;;0.20;;
4696;SDS011;2362;50.780;0.292;2022-07-11T07:39:12;0.20;;;0.20;;
4696;SDS011;2362;50.780;0.292;2022-07-11T07:41:37;0.20;;;0.20;;
4696;SDS011;2362;50.780;0.292;2022-07-11T07:44:03;0.82;;;0.77;;
4696;SDS011;2362;50.780;0.292;2022-07-11T07:46:29;0.50;;;0.50;;
4696;SDS011;2362;50.780;0.292;2022-07-11T07:48:55;0.30;;;0.30;;
4696;SDS011;2362;50.780;0.292;2022-07-11T07:51:20;0.30;;;0.30;;
4696;SDS011;2362;50.780;0.292;2022-07-11T07:53:46;0.30;;;0.30;;
4696;SDS011;2362;50.780;0.292;2022-07-11T07:56:13;0.30;;;0.30;;
4696;SDS011;2362;50.780;0.292;2022-07-11T07:58:38;0.30;;;0.30;;
4696;SDS011;2362;50.780;0.292;2022-07-11T08:01:05;0.30;;;0.30;;
4696;SDS011;2362;50.780;0.292;2022-07-11T08:03:49;0.20;;;0.20;;
4696;SDS011;2362;50.780;0.292;2022-07-11T08:06:15;0.30;;;0.30;;
4696;SDS011;2362;50.780;0.292;2022-07-11T08:08:41;0.80;;;0.80;;
4696;SDS011;2362;50.780;0.292;2022-07-11T08:11:07;0.30;;;0.30;;
4696;SDS011;2362;50.780;0.292;2022-07-11T08:13:33;0.32;;;0.32;;
4696;SDS011;2362;50.780;0.292;2022-07-11T08:15:58;0.45;;;0.45;;
4696;SDS011;2362;50.780;0.292;2022-07-11T08:18:24;0.22;;;0.22;;
4696;SDS011;2362;50.780;0.292;2022-07-11T08:20:53;0.30;;;0.30;;
4696;SDS011;2362;50.780;0.292;2022-07-11T08:23:21;0.20;;;0.20;;
4696;SDS011;2362;50.780;0.292;2022-07-11T08:25:47;0.30;;;0.30;;
4696;SDS011;2362;50.780;0.292;2022-07-11T08:28:12;0.20;;;0.20;;
4696;SDS011;2362;50.780;0.292;2022-07-11T08:30:38;0.20;;;0.20;;
4696;SDS011;2362;50.780;0.292;2022-07-11T08:33:04;0.25;;;0.25;;
4696;SDS011;2362;50.780;0.292;2022-07-11T08:35:29;0.20;;;0.20;;
4696;SDS011;2362;50.780;0.292;2022-07-11T08:37:55;0.30;;;0.30;;
4696;SDS011;2362;50.780;0.292;2022-07-11T08:40:21;0.30;;;0.30;;
4696;SDS011;2362;50.780;0.292;2022-07-11T08:42:47;0.57;;;0.57;;
4696;SDS011;2362;50.780;0.292;2022-07-11T08:45:13;0.40;;;0.40;;
4696;SDS011;2362;50.780;0.292;2022-07-11T08:47:40;0.38;;;0.38;;
4696;SDS011;2362;50.780;0.292;2022-07-11T08:50:07;0.30;;;0.30;;
4696;SDS011;2362;50.780;0.292;2022-07-11T08:52:34;0.25;;;0.25;;
4696;SDS011;2362;50.780;0.292;2022-07-11T08:55:01;0.30;;;0.30;;
4696;SDS011;2362;50.780;0.292;2022-07-11T08:57:31;0.65;;;0.65;;
4696;SDS011;2362;50.780;0.292;2022-07-11T09:00:01;0.40;;;0.40;;
4696;SDS011;2362;50.780;0.292;2022-07-11T09:02:30;0.43;;;0.43;;
4696;SDS011;2362;50.780;0.292;2022-07-11T09:04:58;0.20;;;0.20;;
4696;SDS011;2362;50.780;0.292;2022-07-11T09:07:25;0.40;;;0.40;;
4696;SDS011;2362;50.780;0.292;2022-07-11T09:09:51;0.20;;;0.20;;
4696;SDS011;2362;50.780;0.292;2022-07-11T09:12:17;0.30;;;0.30;;
4696;SDS011;2362;50.780;0.292;2022-07-11T09:14:49;0.20;;;0.20;;
4696;SDS011;2362;50.780;0.292;2022-07-11T09:17:50;0.20;;;0.20;;
4696;SDS011;2362;50.780;0.292;2022-07-11T09:20:09;0.20;;;0.20;;
4696;SDS011;2362;50.780;0.292;2022-07-11T09:22:35;0.40;;;0.40;;
4696;SDS011;2362;50.780;0.292;2022-07-11T09:25:19;0.20;;;0.20;;
4696;SDS011;2362;50.780;0.292;2022-07-11T09:30:16;9.50;;;0.57;;
4696;SDS011;2362;50.780;0.292;2022-07-11T09:32:52;0.30;;;0.30;;
4696;SDS011;2362;50.780;0.292;2022-07-11T09:35:21;0.60;;;0.60;;
4696;SDS011;2362;50.780;0.292;2022-07-11T09:37:47;0.43;;;0.43;;
4696;SDS011;2362;50.780;0.292;2022-07-11T09:40:14;0.45;;;0.45;;
4696;SDS011;2362;50.780;0.292;2022-07-11T09:42:50;0.30;;;0.30;;
4696;SDS011;2362;50.780;0.292;2022-07-11T09:45:18;0.30;;;0.30;;
4696;SDS011;2362;50.780;0.292;2022-07-11T09:47:49;0.30;;;0.30;;
4696;SDS011;2362;50.780;0.292;2022-07-11T09:50:18;1.05;;;0.77;;
4696;SDS011;2362;50.780;0.292;2022-07-11T09:52:57;0.93;;;0.93;;
4696;SDS011;2362;50.780;0.292;2022-07-11T09:55:24;0.30;;;0.30;;
4696;SDS011;2362;50.780;0.292;2022-07-11T09:57:51;0.40;;;0.40;;
4696;SDS011;2362;50.780;0.292;2022-07-11T10:00:17;0.40;;;0.40;;
4696;SDS011;2362;50.780;0.292;2022-07-11T10:02:42;0.40;;;0.40;;
4696;SDS011;2362;50.780;0.292;2022-07-11T10:05:09;0.50;;;0.45;;
4696;SDS011;2362;50.780;0.292;2022-07-11T10:07:34;0.50;;;0.50;;
4696;SDS011;2362;50.780;0.292;2022-07-11T10:10:01;0.68;;;0.68;;
4696;SDS011;2362;50.780;0.292;2022-07-11T10:12:29;0.40;;;0.40;;
4696;SDS011;2362;50.780;0.292;2022-07-11T10:14:57;0.50;;;0.50;;
4696;SDS011;2362;50.780;0.292;2022-07-11T10:20:24;0.50;;;0.50;;
4696;SDS011;2362;50.780;0.292;2022-07-11T10:23:06;0.50;;;0.50;;
4696;SDS011;2362;50.780;0.292;2022-07-11T10:25:40;4.45;;;4.05;;
4696;SDS011;2362;50.780;0.292;2022-07-11T10:30:55;0.50;;;0.50;;
4696;SDS011;2362;50.780;0.292;2022-07-11T10:33:26;0.40;;;0.40;;
4696;SDS011;2362;50.780;0.292;2022-07-11T10:35:53;0.40;;;0.40;;
4696;SDS011;2362;50.780;0.292;2022-07-11T10:38:20;0.50;;;0.50;;
4696;SDS011;2362;50.780;0.292;2022-07-11T10:46:10;0.50;;;0.50;;
4696;SDS011;2362;50.780;0.292;2022-07-11T10:49:30;0.40;;;0.40;;
4696;SDS011;2362;50.780;0.292;2022-07-11T10:54:22;0.50;;;0.50;;
4696;SDS011;2362;50.780;0.292;2022-07-11T10:59:26;1.25;;;1.08;;
4696;SDS011;2362;50.780;0.292;2022-07-11T11:02:11;0.50;;;0.50;;
4696;SDS011;2362;50.780;0.292;2022-07-11T11:04:55;0.57;;;0.50;;
4696;SDS011;2362;50.780;0.292;2022-07-11T11:10:05;0.30;;;0.30;;
4696;SDS011;2362;50.780;0.292;2022-07-11T11:15:51;0.30;;;0.30;;
4696;SDS011;2362;50.780;0.292;2022-07-11T11:23:36;0.30;;;0.30;;
4696;SDS011;2362;50.780;0.292;2022-07-11T11:26:07;0.30;;;0.30;;
4696;SDS011;2362;50.780;0.292;2022-07-11T11:28:35;0.30;;;0.30;;
4696;SDS011;2362;50.780;0.292;2022-07-11T11:31:03;0.40;;;0.40;;
4696;SDS011;2362;50.780;0.292;2022-07-11T11:33:32;0.30;;;0.30;;
4696;SDS011;2362;50.780;0.292;2022-07-11T11:36:02;0.40;;;0.40;;
4696;SDS011;2362;50.780;0.292;2022-07-11T11:38:30;0.30;;;0.30;;
4696;SDS011;2362;50.780;0.292;2022-07-11T11:40:59;1.42;;;0.70;;
4696;SDS011;2362;50.780;0.292;2022-07-11T11:43:25;0.30;;;0.30;;
4696;SDS011;2362;50.780;0.292;2022-07-11T11:45:54;0.50;;;0.50;;
4696;SDS011;2362;50.780;0.292;2022-07-11T11:48:30;0.60;;;0.60;;
4696;SDS011;2362;50.780;0.292;2022-07-11T11:51:10;0.40;;;0.40;;
4696;SDS011;2362;50.780;0.292;2022-07-11T11:53:45;0.30;;;0.30;;
4696;SDS011;2362;50.780;0.292;2022-07-11T11:56:16;0.40;;;0.40;;
4696;SDS011;2362;50.780;0.292;2022-07-11T11:58:46;0.40;;;0.40;;
4696;SDS011;2362;50.780;0.292;2022-07-11T12:01:13;0.30;;;0.30;;
4696;SDS011;2362;50.780;0.292;2022-07-11T12:03:51;0.50;;;0.50;;
4696;SDS011;2362;50.780;0.292;2022-07-11T12:06:22;0.60;;;0.60;;
4696;SDS011;2362;50.780;0.292;2022-07-11T12:09:02;0.30;;;0.30;;
4696;SDS011;2362;50.780;0.292;2022-07-11T12:11:29;0.30;;;0.30;;
4696;SDS011;2362;50.780;0.292;2022-07-11T12:13:59;0.30;;;0.30;;
4696;SDS011;2362;50.780;0.292;2022-07-11T12:16:27;0.30;;;0.30;;
4696;SDS011;2362;50.780;0.292;2022-07-11T12:19:32;1.50;;;1.02;;
4696;SDS011;2362;50.780;0.292;2022-07-11T12:21:57;0.43;;;0.43;;
4696;SDS011;2362;50.780;0.292;2022-07-11T12:24:25;0.30;;;0.30;;
4696;SDS011;2362;50.780;0.292;2022-07-11T12:26:54;0.40;;;0.40;;
4696;SDS011;2362;50.780;0.292;2022-07-11T12:29:21;0.40;;;0.40;;
4696;SDS011;2362;50.780;0.292;2022-07-11T12:34:19;0.30;;;0.30;;
4696;SDS011;2362;50.780;0.292;2022-07-11T12:36:46;0.35;;;0.35;;
4696;SDS011;2362;50.780;0.292;2022-07-11T12:39:26;0.30;;;0.30;;
4696;SDS011;2362;50.780;0.292;2022-07-11T12:41:54;0.28;;;0.28;;
4696;SDS011;2362;50.780;0.292;2022-07-11T12:44:24;0.30;;;0.30;;
4696;SDS011;2362;50.780;0.292;2022-07-11T12:47:14;0.30;;;0.30;;
4696;SDS011;2362;50.780;0.292;2022-07-11T12:49:42;0.40;;;0.40;;
4696;SDS011;2362;50.780;0.292;2022-07-11T12:52:11;0.40;;;0.40;;
4696;SDS011;2362;50.780;0.292;2022-07-11T12:54:37;0.20;;;0.20;;
4696;SDS011;2362;50.780;0.292;2022-07-11T12:57:05;0.30;;;0.30;;
4696;SDS011;2362;50.780;0.292;2022-07-11T12:59:32;0.30;;;0.30;;
4696;SDS011;2362;50.780;0.292;2022-07-11T13:04:29;0.30;;;0.30;;
4696;SDS011;2362;50.780;0.292;2022-07-11T13:07:44;0.20;;;0.20;;
4696;SDS011;2362;50.780;0.292;2022-07-11T13:10:25;0.25;;;0.25;;
4696;SDS011;2362;50.780;0.292;2022-07-11T13:13:12;0.30;;;0.30;;
4696;SDS011;2362;50.780;0.292;2022-07-11T13:15:39;0.30;;;0.30;;
4696;SDS011;2362;50.780;0.292;2022-07-11T13:18:05;0.30;;;0.30;;
4696;SDS011;2362;50.780;0.292;2022-07-11T13:20:33;0.60;;;0.60;;
4696;SDS011;2362;50.780;0.292;2022-07-11T13:23:00;0.30;;;0.30;;
4696;SDS011;2362;50.780;0.292;2022-07-11T13:25:26;0.30;;;0.30;;
4696;SDS011;2362;50.780;0.292;2022-07-11T13:27:52;0.20;;;0.20;;
4696;SDS011;2362;50.780;0.292;2022-07-11T13:30:19;0.20;;;0.20;;
4696;SDS011;2362;50.780;0.292;2022-07-11T13:32:48;0.20;;;0.20;;
4696;SDS011;2362;50.780;0.292;2022-07-11T13:35:15;0.30;;;0.30;;
4696;SDS011;2362;50.780;0.292;2022-07-11T13:37:42;0.40;;;0.40;;
4696;SDS011;2362;50.780;0.292;2022-07-11T13:40:10;0.30;;;0.30;;
4696;SDS011;2362;50.780;0.292;2022-07-11T13:42:40;0.30;;;0.30;;
4696;SDS011;2362;50.780;0.292;2022-07-11T13:45:11;0.30;;;0.30;;
4696;SDS011;2362;50.780;0.292;2022-07-11T13:47:37;0.30;;;0.30;;
4696;SDS011;2362;50.780;0.292;2022-07-11T13:50:03;0.20;;;0.20;;
4696;SDS011;2362;50.780;0.292;2022-07-11T13:52:29;0.20;;;0.20;;
4696;SDS011;2362;50.780;0.292;2022-07-11T13:54:55;0.20;;;0.20;;
4696;SDS011;2362;50.780;0.292;2022-07-11T13:57:22;0.20;;;0.20;;
4696;SDS011;2362;50.780;0.292;2022-07-11T13:59:48;0.20;;;0.20;;
4696;SDS011;2362;50.780;0.292;2022-07-11T14:02:14;0.20;;;0.20;;
4696;SDS011;2362;50.780;0.292;2022-07-11T14:04:40;0.25;;;0.25;;
4696;SDS011;2362;50.780;0.292;2022-07-11T14:07:06;0.25;;;0.25;;
4696;SDS011;2362;50.780;0.292;2022-07-11T14:09:32;0.30;;;0.30;;
4696;SDS011;2362;50.780;0.292;2022-07-11T14:11:59;0.30;;;0.30;;
4696;SDS011;2362;50.780;0.292;2022-07-11T14:14:25;0.30;;;0.30;;
4696;SDS011;2362;50.780;0.292;2022-07-11T14:16:51;6.13;;;0.95;;
4696;SDS011;2362;50.780;0.292;2022-07-11T14:19:17;0.30;;;0.30;;
4696;SDS011;2362;50.780;0.292;2022-07-11T14:21:43;0.30;;;0.30;;
4696;SDS011;2362;50.780;0.292;2022-07-11T14:24:10;0.30;;;0.30;;
4696;SDS011;2362;50.780;0.292;2022-07-11T14:26:37;0.30;;;0.30;;
4696;SDS011;2362;50.780;0.292;2022-07-11T14:29:03;0.30;;;0.30;;
4696;SDS011;2362;50.780;0.292;2022-07-11T14:31:30;0.65;;;0.50;;
4696;SDS011;2362;50.780;0.292;2022-07-11T14:33:58;0.30;;;0.30;;
4696;SDS011;2362;50.780;0.292;2022-07-11T14:36:24;0.30;;;0.30;;
4696;SDS011;2362;50.780;0.292;2022-07-11T14:38:50;0.28;;;0.28;;
4696;SDS011;2362;50.780;0.292;2022-07-11T14:41:16;0.30;;;0.30;;
4696;SDS011;2362;50.780;0.292;2022-07-11T14:43:43;0.20;;;0.20;;
4696;SDS011;2362;50.780;0.292;2022-07-11T14:46:09;0.30;;;0.30;;
4696;SDS011;2362;50.780;0.292;2022-07-11T14:48:35;0.30;;;0.30;;
4696;SDS011;2362;50.780;0.292;2022-07-11T14:51:02;0.20;;;0.20;;
4696;SDS011;2362;50.780;0.292;2022-07-11T14:53:28;0.20;;;0.20;;
4696;SDS011;2362;50.780;0.292;2022-07-11T14:55:54;0.40;;;0.40;;
4696;SDS011;2362;50.780;0.292;2022-07-11T14:58:20;0.20;;;0.20;;
4696;SDS011;2362;50.780;0.292;2022-07-11T15:00:46;0.30;;;0.30;;
4696;SDS011;2362;50.780;0.292;2022-07-11T15:03:12;0.35;;;0.35;;
4696;SDS011;2362;50.780;0.292;2022-07-11T15:05:56;0.30;;;0.30;;
4696;SDS011;2362;50.780;0.292;2022-07-11T15:08:23;0.30;;;0.30;;
4696;SDS011;2362;50.780;0.292;2022-07-11T15:11:08;0.20;;;0.20;;
4696;SDS011;2362;50.780;0.292;2022-07-11T15:13:53;0.20;;;0.20;;
4696;SDS011;2362;50.780;0.292;2022-07-11T15:16:19;0.20;;;0.20;;
4696;SDS011;2362;50.780;0.292;2022-07-11T15:18:45;0.28;;;0.28;;
4696;SDS011;2362;50.780;0.292;2022-07-11T15:21:11;0.30;;;0.30;;
4696;SDS011;2362;50.780;0.292;2022-07-11T15:23:37;0.20;;;0.20;;
4696;SDS011;2362;50.780;0.292;2022-07-11T15:26:03;0.30;;;0.30;;
4696;SDS011;2362;50.780;0.292;2022-07-11T15:28:29;0.20;;;0.20;;
4696;SDS011;2362;50.780;0.292;2022-07-11T15:30:55;0.20;;;0.20;;
4696;SDS011;2362;50.780;0.292;2022-07-11T15:33:20;0.25;;;0.25;;
4696;SDS011;2362;50.780;0.292;2022-07-11T15:35:50;0.25;;;0.25;;
4696;SDS011;2362;50.780;0.292;2022-07-11T15:38:18;0.20;;;0.20;;
4696;SDS011;2362;50.780;0.292;2022-07-11T15:40:44;0.30;;;0.30;;
4696;SDS011;2362;50.780;0.292;2022-07-11T15:43:11;0.30;;;0.30;;
4696;SDS011;2362;50.780;0.292;2022-07-11T15:45:40;0.30;;;0.30;;
4696;SDS011;2362;50.780;0.292;2022-07-11T15:48:06;0.30;;;0.30;;
4696;SDS011;2362;50.780;0.292;2022-07-11T15:50:33;0.20;;;0.20;;
4696;SDS011;2362;50.780;0.292;2022-07-11T15:52:59;0.25;;;0.25;;